Time;durP1;ratioP1;P1;durP2;ratioP2;P2;SDS_P1;SDS_P2;PMS_P1;PMS_P2;Temp;Humidity;BMP_temperature;BMP_pressure;BME280_temperature;BME280_humidity;BME280_pressure;Samples;Min_cycle;Max_cycle;Signal;HPM_P1;HPM_P2
2023/04/26 00:01:59;;;;;;;16.13;2.47;;;;;;;4.34;72.75;100644.19;5045745;28;20099;-74
2023/04/26 00:04:27;;;;;;;11.50;2.13;;;;;;;4.30;72.49;100637.34;5031471;28;20071;-73
2023/04/26 00:06:56;;;;;;;10.90;2.47;;;;;;;4.31;73.37;100629.47;5049154;28;20553;-72
2023/04/26 00:09:23;;;;;;;18.60;2.45;;;;;;;4.28;73.29;100636.56;5049803;28;20052;-72
2023/04/26 00:11:50;;;;;;;10.57;2.72;;;;;;;4.28;72.67;100629.59;5030392;28;20060;-73
2023/04/26 00:14:18;;;;;;;13.15;2.85;;;;;;;4.23;73.41;100628.03;5026770;28;20053;-72
2023/04/26 00:16:45;;;;;;;13.00;2.10;;;;;;;4.25;73.20;100631.44;5034145;28;20155;-72
2023/04/26 00:19:12;;;;;;;12.95;2.67;;;;;;;4.19;73.67;100631.66;5052202;28;20052;-75
2023/04/26 00:21:39;;;;;;;12.13;2.80;;;;;;;4.20;73.62;100629.00;5024289;28;20132;-74
2023/04/26 00:24:07;;;;;;;13.50;2.95;;;;;;;4.19;73.42;100634.25;5045091;28;20053;-74
2023/04/26 00:26:34;;;;;;;14.55;2.42;;;;;;;4.16;73.99;100642.16;5006890;28;20067;-72
2023/04/26 00:36:07;;;;;;;11.40;2.70;;;;;;;4.02;74.61;100630.44;5021396;28;20067;-79
2023/04/26 00:38:35;;;;;;;7.80;2.00;;;;;;;4.04;75.03;100636.44;5023647;28;20052;-71
2023/04/26 00:41:02;;;;;;;16.52;2.83;;;;;;;3.98;74.86;100636.63;5023443;28;20049;-72
2023/04/26 00:43:29;;;;;;;13.73;2.58;;;;;;;3.93;75.93;100627.28;5039732;28;20053;-72
2023/04/26 00:45:57;;;;;;;9.02;2.25;;;;;;;3.89;76.20;100641.28;5021401;28;20119;-72
2023/04/26 00:48:25;;;;;;;10.00;2.42;;;;;;;3.86;75.94;100636.16;5031365;28;20055;-71
2023/04/26 00:50:52;;;;;;;8.30;2.17;;;;;;;3.85;76.13;100634.47;5008668;28;20069;-72
2023/04/26 00:53:19;;;;;;;9.98;2.10;;;;;;;3.83;76.37;100637.13;5041209;28;20049;-73
2023/04/26 00:55:47;;;;;;;11.85;2.40;;;;;;;3.76;77.51;100641.66;5059935;28;20140;-71
2023/04/26 00:58:15;;;;;;;11.32;2.15;;;;;;;3.75;77.42;100641.72;5042005;28;20083;-72
2023/04/26 01:00:43;;;;;;;12.00;2.85;;;;;;;3.74;77.36;100640.03;5043047;28;20059;-72
2023/04/26 01:03:10;;;;;;;8.50;1.95;;;;;;;3.69;78.46;100641.88;5043142;28;20077;-72
2023/04/26 01:05:38;;;;;;;11.07;2.42;;;;;;;3.68;77.78;100638.44;5042785;28;20095;-73
2023/04/26 01:08:05;;;;;;;13.30;2.70;;;;;;;3.63;78.81;100644.69;5019940;28;20140;-72
2023/04/26 01:10:33;;;;;;;14.77;3.40;;;;;;;3.64;78.88;100644.63;5024537;28;20057;-71
2023/04/26 01:13:05;;;;;;;17.70;3.72;;;;;;;3.61;78.84;100644.75;5017120;28;20132;-72
2023/04/26 01:15:32;;;;;;;8.85;2.42;;;;;;;3.58;79.31;100642.22;5023406;28;20136;-74
2023/04/26 01:18:00;;;;;;;18.52;2.83;;;;;;;3.57;79.13;100640.53;5009124;28;20061;-72
2023/04/26 01:20:27;;;;;;;13.27;2.33;;;;;;;3.56;79.39;100641.44;5042727;28;20091;-73
2023/04/26 01:22:55;;;;;;;7.68;1.90;;;;;;;3.57;79.73;100647.47;5038598;28;20059;-72
2023/04/26 01:25:22;;;;;;;16.75;2.65;;;;;;;3.57;79.20;100653.53;5013374;28;20049;-72
2023/04/26 01:27:49;;;;;;;17.90;2.88;;;;;;;3.56;79.92;100646.63;5034786;28;20072;-71
2023/04/26 01:30:17;;;;;;;7.97;2.20;;;;;;;3.54;79.54;100649.25;5043096;28;20073;-71
2023/04/26 01:32:44;;;;;;;9.30;2.13;;;;;;;3.50;80.35;100658.06;5021943;28;20436;-73
2023/04/26 01:35:12;;;;;;;15.05;2.50;;;;;;;3.44;80.47;100660.84;5004822;28;20587;-72
2023/04/26 01:37:39;;;;;;;7.43;2.00;;;;;;;3.48;80.17;100659.00;5043333;28;20060;-72
2023/04/26 01:40:07;;;;;;;15.20;2.65;;;;;;;3.46;80.14;100660.78;5039561;28;20140;-73
2023/04/26 01:42:34;;;;;;;15.57;2.70;;;;;;;3.44;80.95;100678.22;5047314;28;20064;-73
2023/04/26 01:45:02;;;;;;;12.13;2.17;;;;;;;3.40;81.32;100663.56;5051185;28;20117;-72
2023/04/26 01:47:29;;;;;;;10.77;2.28;;;;;;;3.42;81.11;100669.56;5055343;28;20261;-71
2023/04/26 01:49:57;;;;;;;17.63;2.58;;;;;;;3.39;81.86;100670.53;5055919;28;20081;-72
2023/04/26 01:52:24;;;;;;;13.65;2.42;;;;;;;3.35;81.88;100661.09;5037387;28;20125;-72
2023/04/26 01:54:51;;;;;;;10.48;2.55;;;;;;;3.30;81.97;100666.44;5019608;28;20071;-72
2023/04/26 01:57:18;;;;;;;12.75;2.35;;;;;;;3.29;82.00;100667.34;5040242;28;20190;-71
2023/04/26 01:59:46;;;;;;;14.38;3.22;;;;;;;3.28;82.10;100667.38;5040447;28;20052;-73
2023/04/26 02:02:16;;;;;;;10.27;2.63;;;;;;;3.25;82.37;100662.28;5021045;28;20500;-72
2023/04/26 02:04:43;;;;;;;9.25;2.25;;;;;;;3.20;83.17;100662.41;5029858;28;20502;-71
2023/04/26 02:07:10;;;;;;;12.57;2.42;;;;;;;3.22;83.12;100671.00;5026149;28;20064;-73
2023/04/26 02:09:37;;;;;;;8.80;2.40;;;;;;;3.19;83.49;100657.22;5011203;28;20051;-72
2023/04/26 02:12:05;;;;;;;19.75;3.05;;;;;;;3.20;83.49;100658.94;5026675;28;20076;-74
2023/04/26 02:14:32;;;;;;;9.90;2.10;;;;;;;3.16;83.32;100675.53;5045699;28;20140;-72
2023/04/26 02:17:00;;;;;;;10.82;2.20;;;;;;;3.15;83.34;100663.41;5022211;28;20065;-75
2023/04/26 02:19:28;;;;;;;11.80;2.95;;;;;;;3.10;84.09;100663.53;5013144;28;20140;-72
2023/04/26 02:21:56;;;;;;;10.25;2.40;;;;;;;3.09;84.33;100658.38;4996635;28;20077;-72
2023/04/26 02:24:24;;;;;;;12.15;2.45;;;;;;;3.07;84.82;100655.84;5021623;28;20476;-73
2023/04/26 02:26:53;;;;;;;14.30;3.42;;;;;;;3.00;84.73;100665.53;5025976;28;20128;-73
2023/04/26 02:29:20;;;;;;;17.13;3.00;;;;;;;3.04;85.07;100661.09;5019148;28;20068;-73
2023/04/26 02:32:06;;;;;;;9.30;2.33;;;;;;;3.01;85.09;100661.19;5039287;28;20047;-73
2023/04/26 02:34:34;;;;;;;8.73;2.40;;;;;;;3.01;85.09;100663.78;5035219;28;20061;-72
2023/04/26 02:37:01;;;;;;;11.65;2.65;;;;;;;2.97;85.47;100664.75;5013732;28;20044;-72
2023/04/26 02:39:29;;;;;;;16.48;2.63;;;;;;;2.95;85.97;100672.59;5032772;28;20117;-74
2023/04/26 02:41:56;;;;;;;14.70;3.10;;;;;;;2.93;85.76;100661.41;5022191;28;20140;-72
2023/04/26 02:44:24;;;;;;;10.20;2.20;;;;;;;2.89;86.02;100678.00;5019858;28;20771;-73
2023/04/26 02:46:51;;;;;;;11.48;3.15;;;;;;;2.95;86.10;100663.97;5004387;28;20139;-73
2023/04/26 02:49:19;;;;;;;17.73;3.10;;;;;;;2.88;86.45;100655.50;5004016;28;20049;-73
2023/04/26 02:51:46;;;;;;;13.00;3.17;;;;;;;2.87;86.85;100665.91;5024220;28;20140;-73
2023/04/26 02:54:13;;;;;;;9.23;2.20;;;;;;;2.87;86.69;100661.56;5002659;28;20100;-71
2023/04/26 02:56:40;;;;;;;10.13;2.47;;;;;;;2.88;86.60;100665.00;5008752;28;20059;-72
2023/04/26 02:59:08;;;;;;;15.93;3.05;;;;;;;2.86;87.12;100664.22;5025938;28;20048;-72
2023/04/26 03:01:35;;;;;;;14.75;2.97;;;;;;;2.81;87.16;100661.72;4999903;28;20056;-73
2023/04/26 03:04:03;;;;;;;11.23;2.38;;;;;;;2.82;87.40;100680.78;5033850;28;20087;-72
2023/04/26 03:06:30;;;;;;;11.35;2.55;;;;;;;2.82;87.81;100659.97;5041445;28;20576;-71
2023/04/26 03:08:57;;;;;;;12.68;2.88;;;;;;;2.84;87.26;100664.25;5038880;28;20071;-74
2023/04/26 03:11:25;;;;;;;11.75;3.03;;;;;;;2.79;87.63;100661.78;5039953;28;20143;-70
2023/04/26 03:13:52;;;;;;;13.80;3.08;;;;;;;2.78;87.99;100677.41;5024330;28;20073;-72
2023/04/26 03:16:21;;;;;;;11.75;2.88;;;;;;;2.79;87.63;100676.50;5035433;28;20079;-73
2023/04/26 03:18:49;;;;;;;10.68;2.78;;;;;;;2.75;88.11;100669.69;5041779;28;20052;-73
2023/04/26 03:21:17;;;;;;;12.80;3.10;;;;;;;2.77;87.94;100673.09;5045881;28;20065;-71
2023/04/26 03:23:44;;;;;;;14.65;2.50;;;;;;;2.75;88.15;100660.16;5040410;28;20481;-73
2023/04/26 03:26:12;;;;;;;14.68;2.80;;;;;;;2.76;88.27;100674.84;5021546;28;20609;-73
2023/04/26 03:28:40;;;;;;;10.82;2.95;;;;;;;2.73;88.46;100677.50;5022377;28;20072;-71
2023/04/26 03:31:07;;;;;;;15.40;2.63;;;;;;;2.76;88.60;100687.00;5042663;28;20072;-73
2023/04/26 03:33:34;;;;;;;12.32;3.03;;;;;;;2.67;89.15;100676.84;5034558;28;20143;-73
2023/04/26 03:36:02;;;;;;;13.25;2.55;;;;;;;2.67;89.26;100676.84;5027286;28;20509;-74
2023/04/26 03:38:29;;;;;;;10.10;2.20;;;;;;;2.67;89.23;100684.63;5022615;28;20045;-72
2023/04/26 03:40:56;;;;;;;15.68;3.72;;;;;;;2.68;89.29;100683.72;5019014;28;20049;-73
2023/04/26 03:43:24;;;;;;;14.18;3.45;;;;;;;2.65;89.64;100684.66;5019865;28;20060;-73
2023/04/26 03:45:51;;;;;;;19.50;3.85;;;;;;;2.60;90.21;100685.66;5040352;28;20132;-73
2023/04/26 03:48:18;;;;;;;15.18;3.55;;;;;;;2.64;90.03;100689.91;5015869;28;20085;-73
2023/04/26 03:50:45;;;;;;;18.60;3.30;;;;;;;2.63;89.99;100691.66;5029020;28;20420;-72
2023/04/26 03:53:13;;;;;;;15.30;3.28;;;;;;;2.62;90.15;100699.50;5022458;28;20601;-72
2023/04/26 03:55:40;;;;;;;14.98;3.95;;;;;;;2.64;90.05;100692.50;5037713;28;20480;-71
2023/04/26 03:58:08;;;;;;;13.82;2.75;;;;;;;2.65;90.40;100689.00;5045286;28;20087;-72
2023/04/26 04:00:38;;;;;;;14.55;2.97;;;;;;;2.65;90.24;100689.00;5023920;28;20065;-73
2023/04/26 04:03:05;;;;;;;22.83;4.80;;;;;;;2.64;90.43;100698.53;5002410;28;20363;-73
2023/04/26 04:05:33;;;;;;;14.27;3.17;;;;;;;2.67;90.39;100708.03;5041472;28;20151;-74
2023/04/26 04:08:01;;;;;;;14.63;3.00;;;;;;;2.66;90.40;100708.94;5022491;28;20045;-73
2023/04/26 04:10:28;;;;;;;10.23;2.85;;;;;;;2.61;90.71;100706.44;5008255;28;20133;-75
2023/04/26 04:12:55;;;;;;;13.80;3.10;;;;;;;2.63;90.68;100711.59;5008390;28;20049;-74
2023/04/26 04:15:23;;;;;;;12.77;3.28;;;;;;;2.67;90.26;100702.84;5040028;28;20063;-73
2023/04/26 04:17:50;;;;;;;21.67;3.97;;;;;;;2.61;90.58;100700.38;5015890;28;20049;-72
2023/04/26 04:20:17;;;;;;;17.85;3.38;;;;;;;2.67;90.14;100701.09;5057032;28;20133;-72
2023/04/26 04:22:44;;;;;;;17.85;3.53;;;;;;;2.70;90.62;100703.63;5021618;28;20087;-74
2023/04/26 04:25:12;;;;;;;11.82;4.07;;;;;;;2.68;90.21;100710.56;5019520;28;20052;-74
2023/04/26 04:27:42;;;;;;;14.10;3.25;;;;;;;2.70;90.22;100707.94;5042418;28;20160;-75
2023/04/26 04:30:11;;;;;;;16.17;3.28;;;;;;;2.73;90.35;100713.91;5040955;28;20057;-73
2023/04/26 04:32:39;;;;;;;17.83;3.33;;;;;;;2.75;90.13;100708.69;5025325;28;20152;-76
2023/04/26 04:35:06;;;;;;;13.10;3.10;;;;;;;2.76;90.04;100713.00;5026620;28;20136;-75
2023/04/26 04:37:34;;;;;;;19.63;4.80;;;;;;;2.79;89.79;100718.09;5028849;28;20580;-75
2023/04/26 04:40:01;;;;;;;13.65;3.28;;;;;;;2.79;90.10;100710.28;5042555;28;20052;-74
2023/04/26 04:42:28;;;;;;;18.65;4.07;;;;;;;2.82;89.65;100720.63;5027802;28;20128;-74
2023/04/26 04:44:56;;;;;;;18.83;3.22;;;;;;;2.83;89.50;100714.53;5024264;28;20045;-75
2023/04/26 04:47:23;;;;;;;15.52;3.80;;;;;;;2.92;89.33;100724.69;5026157;28;20049;-74
2023/04/26 04:49:51;;;;;;;20.60;4.22;;;;;;;2.94;88.68;100722.91;5025089;28;20083;-74
2023/04/26 04:52:20;;;;;;;21.63;3.83;;;;;;;2.95;88.88;100716.81;5009804;28;20168;-75
2023/04/26 04:54:47;;;;;;;14.30;3.58;;;;;;;2.94;88.31;100722.91;5024636;28;20783;-73
2023/04/26 04:57:15;;;;;;;12.63;3.20;;;;;;;2.98;88.48;100727.16;5042344;28;20056;-74
2023/04/26 04:59:43;;;;;;;17.88;3.92;;;;;;;3.03;88.32;100720.06;5022723;28;20394;-75
2023/04/26 05:02:10;;;;;;;20.10;4.03;;;;;;;3.06;88.15;100732.13;5019885;28;20049;-73
2023/04/26 05:04:37;;;;;;;12.63;3.28;;;;;;;3.07;88.51;100739.06;5033392;28;20195;-75
2023/04/26 05:07:05;;;;;;;13.65;3.33;;;;;;;3.05;88.10;100730.44;5021509;28;20431;-75
2023/04/26 05:09:33;;;;;;;12.50;3.03;;;;;;;3.15;87.49;100736.22;5008462;28;20163;-74
2023/04/26 05:12:00;;;;;;;12.18;3.63;;;;;;;3.18;87.00;100738.75;5025286;28;20044;-76
2023/04/26 05:14:28;;;;;;;11.80;3.22;;;;;;;3.29;86.96;100747.16;5005689;28;20844;-73
2023/04/26 05:16:56;;;;;;;9.95;3.20;;;;;;;3.35;86.02;100746.13;5041030;28;20140;-75
2023/04/26 05:19:24;;;;;;;16.52;3.63;;;;;;;3.42;86.36;100740.72;5041445;28;20136;-75
2023/04/26 05:21:51;;;;;;;18.77;3.72;;;;;;;3.45;85.74;100744.97;5047296;28;20056;-75
2023/04/26 05:24:20;;;;;;;14.23;3.45;;;;;;;3.47;85.80;100753.59;5044265;28;20135;-75
2023/04/26 05:26:47;;;;;;;16.55;3.33;;;;;;;3.45;85.39;100758.84;5008899;28;20063;-74
2023/04/26 05:29:15;;;;;;;17.08;3.10;;;;;;;3.50;85.31;100754.34;5037072;28;20067;-76
2023/04/26 05:31:43;;;;;;;15.35;3.55;;;;;;;3.50;85.35;100750.91;5024377;28;20425;-75
2023/04/26 05:34:10;;;;;;;16.80;3.85;;;;;;;3.61;84.89;100756.69;5026178;28;20045;-75
2023/04/26 05:36:37;;;;;;;16.42;4.28;;;;;;;3.63;84.59;100754.88;5022792;28;20173;-75
2023/04/26 05:39:05;;;;;;;13.32;3.63;;;;;;;3.76;84.71;100764.03;5045746;28;20509;-76
2023/04/26 05:41:33;;;;;;;16.45;4.15;;;;;;;3.80;84.45;100757.84;5046200;28;20284;-75
2023/04/26 05:44:00;;;;;;;17.88;3.65;;;;;;;3.87;83.96;100768.94;5042476;28;20041;-73
2023/04/26 05:46:27;;;;;;;19.25;3.50;;;;;;;3.90;83.18;100770.59;5049675;28;20180;-75
2023/04/26 05:48:55;;;;;;;10.15;2.92;;;;;;;3.86;83.28;100763.78;5046994;28;20068;-74
2023/04/26 05:51:23;;;;;;;14.88;3.50;;;;;;;3.90;82.75;100768.00;5024469;28;20111;-75
2023/04/26 05:53:50;;;;;;;13.38;2.97;;;;;;;3.93;82.71;100781.78;5015079;28;20055;-73
2023/04/26 05:56:18;;;;;;;18.42;3.17;;;;;;;3.91;83.01;100765.34;5023145;28;20053;-73
2023/04/26 05:58:46;;;;;;;16.33;4.28;;;;;;;3.96;82.25;100771.28;5020109;28;20041;-73
2023/04/26 06:01:13;;;;;;;14.52;3.55;;;;;;;3.91;82.69;100769.69;5012974;28;20127;-73
2023/04/26 06:03:41;;;;;;;10.40;3.08;;;;;;;4.03;82.15;100769.34;5016594;28;20129;-73
2023/04/26 06:06:09;;;;;;;17.00;3.10;;;;;;;4.10;82.11;100770.00;5024781;28;20139;-73
2023/04/26 06:08:37;;;;;;;10.13;2.75;;;;;;;4.21;81.76;100778.38;5023539;28;20067;-72
2023/04/26 06:11:04;;;;;;;15.93;3.28;;;;;;;4.25;80.87;100779.97;5021894;28;20517;-73
2023/04/26 06:13:32;;;;;;;11.82;2.95;;;;;;;4.31;81.17;100774.56;5003746;28;20396;-72
2023/04/26 06:15:59;;;;;;;15.10;3.47;;;;;;;4.39;80.73;100776.94;5006653;28;20053;-72
2023/04/26 06:18:26;;;;;;;11.85;3.50;;;;;;;4.55;80.32;100786.00;5005988;28;20136;-73
2023/04/26 06:20:53;;;;;;;17.23;3.80;;;;;;;4.60;79.88;100784.09;5010488;28;20040;-73
2023/04/26 06:23:21;;;;;;;16.08;2.97;;;;;;;4.68;78.46;100791.66;5040313;28;20466;-73
2023/04/26 06:25:48;;;;;;;12.63;2.50;;;;;;;4.71;78.63;100779.38;5022158;28;20065;-72
2023/04/26 06:28:15;;;;;;;17.05;3.20;;;;;;;4.78;78.65;100772.22;5018295;28;20453;-73
2023/04/26 06:30:42;;;;;;;11.13;2.45;;;;;;;4.96;78.94;100779.44;4998214;28;20094;-73
2023/04/26 06:33:10;;;;;;;14.68;3.42;;;;;;;5.05;77.21;100784.34;5021107;28;20642;-74
2023/04/26 06:35:40;;;;;;;26.85;4.00;;;;;;;4.97;77.62;100783.75;4996566;28;20067;-73
2023/04/26 06:38:08;;;;;;;9.73;3.05;;;;;;;5.01;77.46;100781.91;5016423;28;20163;-73
2023/04/26 06:40:38;;;;;;;16.83;3.22;;;;;;;5.19;77.32;100798.69;5019438;28;20139;-73
2023/04/26 06:43:05;;;;;;;19.33;3.97;;;;;;;5.25;76.29;100786.28;5016868;28;20067;-73
2023/04/26 06:45:33;;;;;;;39.25;4.45;;;;;;;5.26;76.14;100802.78;5013182;28;20061;-72
2023/04/26 06:48:01;;;;;;;15.70;3.00;;;;;;;5.35;75.58;100799.88;5001867;28;20049;-72
2023/04/26 06:50:29;;;;;;;12.88;2.80;;;;;;;5.47;75.10;100796.00;5002533;28;20069;-72
2023/04/26 06:52:56;;;;;;;8.60;2.53;;;;;;;5.32;75.73;100797.38;5015200;28;20152;-73
2023/04/26 06:55:23;;;;;;;19.00;3.15;;;;;;;5.36;75.21;100798.97;5018659;28;20052;-73
2023/04/26 06:57:51;;;;;;;13.73;3.20;;;;;;;5.54;74.69;100795.72;5036179;28;20136;-73
2023/04/26 07:00:18;;;;;;;9.27;2.60;;;;;;;5.48;74.20;100793.31;5019346;28;20115;-73
2023/04/26 07:02:46;;;;;;;15.02;2.85;;;;;;;5.56;74.51;100788.69;5017541;28;20159;-73
2023/04/26 07:05:14;;;;;;;19.15;3.35;;;;;;;5.64;73.86;100803.22;5022917;28;20429;-73
2023/04/26 07:07:41;;;;;;;15.07;3.22;;;;;;;5.71;73.50;100795.09;5006910;28;20045;-73
2023/04/26 07:10:09;;;;;;;17.10;3.72;;;;;;;5.79;72.81;100797.44;5033465;28;20032;-73
2023/04/26 07:12:36;;;;;;;24.23;3.00;;;;;;;5.89;71.93;100793.56;5034998;28;20057;-73
2023/04/26 07:15:05;;;;;;;15.00;3.00;;;;;;;6.08;72.02;100799.88;5016693;28;20094;-74
2023/04/26 07:17:32;;;;;;;10.90;2.42;;;;;;;6.21;71.47;100802.00;5029466;28;20044;-74
2023/04/26 07:20:00;;;;;;;20.42;3.30;;;;;;;6.37;69.73;100799.69;5021440;28;20144;-71
2023/04/26 07:22:27;;;;;;;11.52;2.92;;;;;;;6.53;69.31;100809.50;5014665;28;20136;-73
2023/04/26 07:24:54;;;;;;;15.40;2.88;;;;;;;6.63;68.88;100793.44;5040490;28;20132;-73
2023/04/26 07:27:22;;;;;;;17.80;2.97;;;;;;;6.78;67.18;100805.88;5018320;28;20136;-73
2023/04/26 07:29:52;;;;;;;8.90;2.78;;;;;;;6.84;66.81;100809.13;5018801;28;20045;-72
2023/04/26 07:32:20;;;;;;;21.67;2.90;;;;;;;6.64;67.05;100811.66;4996497;28;20512;-73
2023/04/26 07:34:47;;;;;;;17.67;3.20;;;;;;;6.68;67.25;100804.56;5034359;28;20464;-73
2023/04/26 07:37:14;;;;;;;21.08;3.80;;;;;;;6.87;66.86;100812.50;5017791;28;20734;-73
2023/04/26 07:39:42;;;;;;;12.52;3.03;;;;;;;6.97;66.93;100804.22;5006049;28;20104;-73
2023/04/26 07:42:09;;;;;;;19.40;3.38;;;;;;;7.13;66.43;100817.53;5054095;28;20072;-73
2023/04/26 07:44:36;;;;;;;12.55;2.45;;;;;;;7.28;66.45;100814.25;5033201;28;20037;-72
2023/04/26 07:47:03;;;;;;;6.47;2.00;;;;;;;7.20;65.08;100812.88;5039949;28;20049;-72
2023/04/26 07:49:31;;;;;;;20.90;3.25;;;;;;;7.17;64.93;100813.03;5030918;28;20049;-72
2023/04/26 07:52:00;;;;;;;8.23;2.55;;;;;;;7.24;62.56;100820.53;5020995;28;20130;-73
2023/04/26 07:54:28;;;;;;;9.95;2.53;;;;;;;7.37;62.50;100820.88;5004325;28;20057;-73
2023/04/26 07:56:55;;;;;;;9.55;2.05;;;;;;;7.64;61.61;100826.69;5015247;28;20059;-73
2023/04/26 07:59:22;;;;;;;12.15;3.17;;;;;;;7.60;62.01;100823.34;5013455;28;20153;-73
2023/04/26 08:01:50;;;;;;;13.48;2.75;;;;;;;7.74;61.39;100814.03;5028937;28;20563;-73
2023/04/26 08:04:29;;;;;;;9.27;2.65;;;;;;;7.93;60.91;100819.34;5030443;28;20072;-73
2023/04/26 08:06:57;;;;;;;7.32;2.22;;;;;;;7.97;60.11;100823.50;5002136;28;20053;-73
2023/04/26 08:09:24;;;;;;;12.27;2.97;;;;;;;7.80;59.90;100829.50;5032858;28;20140;-73
2023/04/26 08:11:51;;;;;;;17.05;2.30;;;;;;;7.61;60.19;100816.38;5041680;28;20078;-72
2023/04/26 08:14:19;;;;;;;11.48;2.50;;;;;;;7.59;60.16;100820.81;5039573;28;20079;-72
2023/04/26 08:16:46;;;;;;;10.40;2.05;;;;;;;7.49;59.60;100830.84;5039835;28;20058;-72
2023/04/26 08:19:13;;;;;;;10.00;2.70;;;;;;;7.22;60.91;100834.63;5004097;28;20171;-71
2023/04/26 08:21:40;;;;;;;8.43;2.70;;;;;;;7.14;62.40;100826.22;5024375;28;20187;-71
2023/04/26 08:24:08;;;;;;;9.98;2.55;;;;;;;7.13;63.11;100822.78;5038476;28;20338;-71
2023/04/26 08:26:35;;;;;;;10.52;2.65;;;;;;;7.17;62.29;100834.81;5019265;28;20075;-72
2023/04/26 08:29:02;;;;;;;9.70;2.50;;;;;;;7.46;62.63;100837.97;5021936;28;20041;-71
2023/04/26 08:31:30;;;;;;;11.90;2.60;;;;;;;7.86;60.83;100824.00;5023393;28;20179;-71
2023/04/26 08:33:57;;;;;;;18.20;2.80;;;;;;;8.24;59.51;100818.78;5032448;28;20633;-72
2023/04/26 08:36:25;;;;;;;13.73;2.60;;;;;;;8.41;57.83;100816.25;5001681;28;20148;-72
2023/04/26 08:38:52;;;;;;;9.77;2.17;;;;;;;8.40;55.37;100834.69;5009157;28;21129;-70
2023/04/26 08:41:22;;;;;;;7.32;1.90;;;;;;;8.23;55.20;100831.03;5039934;28;20497;-71
2023/04/26 08:43:50;;;;;;;10.52;2.13;;;;;;;8.41;54.63;100832.00;5018490;28;20053;-73
2023/04/26 08:46:18;;;;;;;9.88;2.08;;;;;;;8.20;55.46;100828.56;5017491;28;20171;-69
2023/04/26 08:48:49;;;;;;;8.82;2.30;;;;;;;7.96;58.17;100832.28;5021616;28;20045;-69
2023/04/26 08:51:16;;;;;;;15.55;2.47;;;;;;;7.90;60.34;100830.81;5040079;28;20067;-70
2023/04/26 08:53:44;;;;;;;9.10;2.40;;;;;;;8.27;60.20;100832.59;5016310;28;20132;-69
2023/04/26 08:56:12;;;;;;;20.27;3.15;;;;;;;8.38;59.67;100842.66;5026158;28;20599;-69
2023/04/26 08:58:39;;;;;;;9.80;2.55;;;;;;;8.63;59.34;100827.44;5024981;28;20057;-70
2023/04/26 09:01:08;;;;;;;13.18;2.75;;;;;;;8.91;58.65;100830.50;5043223;28;20152;-69
2023/04/26 09:03:35;;;;;;;11.32;3.03;;;;;;;8.90;56.44;100831.44;5006114;28;20077;-69
2023/04/26 09:06:05;;;;;;;10.70;2.30;;;;;;;8.96;55.63;100834.63;5026691;28;20046;-70
2023/04/26 09:08:35;;;;;;;11.57;2.08;;;;;;;9.05;55.49;100838.56;5018629;28;20068;-70
2023/04/26 09:11:02;;;;;;;9.10;1.90;;;;;;;8.88;53.84;100850.75;5009413;28;20075;-69
2023/04/26 09:13:30;;;;;;;9.75;1.95;;;;;;;8.43;54.52;100853.78;5022755;28;20158;-71
2023/04/26 09:15:57;;;;;;;7.30;1.60;;;;;;;8.47;52.42;100841.38;5020835;28;20128;-70
2023/04/26 09:18:25;;;;;;;6.30;1.98;;;;;;;8.45;52.95;100832.72;5016049;28;20055;-71
2023/04/26 09:21:06;;;;;;;7.22;1.80;;;;;;;8.45;53.37;100837.94;5021869;28;20060;-71
2023/04/26 09:23:34;;;;;;;8.32;2.03;;;;;;;8.57;53.93;100835.63;5036745;28;20067;-71
2023/04/26 09:26:17;;;;;;;6.13;2.17;;;;;;;8.69;53.63;100838.56;5027934;28;20139;-71
2023/04/26 09:28:46;;;;;;;6.07;2.03;;;;;;;8.83;51.99;100828.28;5036522;28;20065;-71
2023/04/26 09:31:37;;;;;;;9.13;1.95;;;;;;;9.13;50.91;100831.16;5035094;28;20600;-71
2023/04/26 09:34:05;;;;;;;11.82;2.22;;;;;;;9.07;51.39;100834.94;5014212;28;20129;-71
2023/04/26 09:36:46;;;;;;;13.68;1.92;;;;;;;9.11;51.30;100830.41;5048082;28;22319;-71
2023/04/26 09:39:13;;;;;;;9.10;1.80;;;;;;;9.00;50.89;100841.41;5037654;28;20156;-70
2023/04/26 09:41:44;;;;;;;10.43;2.22;;;;;;;8.82;52.06;100832.66;5044653;28;20552;-71
2023/04/26 09:44:24;;;;;;;9.80;2.10;;;;;;;8.66;53.31;100841.34;5042153;28;20045;-70
2023/04/26 09:46:58;;;;;;;9.35;2.42;;;;;;;8.63;52.86;100834.47;5007114;28;20297;-70
2023/04/26 09:49:49;;;;;;;8.43;1.95;;;;;;;8.80;52.60;100836.28;5012234;28;20061;-70
2023/04/26 09:52:17;;;;;;;12.32;2.63;;;;;;;8.96;52.08;100837.25;5010021;28;20056;-70
2023/04/26 09:54:52;;;;;;;9.57;2.20;;;;;;;9.00;52.16;100833.53;5021939;28;20313;-71
2023/04/26 09:57:21;;;;;;;10.33;2.47;;;;;;;9.11;52.64;100839.13;5008197;28;20519;-71
2023/04/26 09:59:50;;;;;;;11.63;2.28;;;;;;;9.49;50.34;100830.22;5019058;28;20472;-71
2023/04/26 10:02:23;;;;;;;12.52;2.15;;;;;;;9.44;50.52;100838.34;5019521;28;20124;-71
2023/04/26 10:04:53;;;;;;;4.60;1.88;;;;;;;9.04;48.62;100840.34;5024353;28;20065;-69
2023/04/26 10:07:22;;;;;;;7.72;1.92;;;;;;;8.99;49.53;100834.47;5019294;28;20060;-69
2023/04/26 10:09:50;;;;;;;8.75;1.80;;;;;;;8.85;49.73;100829.03;5036305;28;20144;-69
2023/04/26 10:12:19;;;;;;;8.43;1.67;;;;;;;8.77;49.95;100841.69;5018250;28;20136;-70
2023/04/26 10:14:46;;;;;;;7.25;1.77;;;;;;;8.55;50.67;100839.22;5020265;28;20410;-70
2023/04/26 10:17:14;;;;;;;15.30;2.58;;;;;;;8.75;50.84;100843.53;5017239;28;20231;-70
2023/04/26 10:19:45;;;;;;;9.07;2.33;;;;;;;9.12;49.86;100845.22;5001780;28;20064;-71
2023/04/26 10:22:22;;;;;;;8.15;1.95;;;;;;;9.07;49.54;100845.44;5029638;28;20513;-71
2023/04/26 10:24:51;;;;;;;6.72;1.80;;;;;;;9.26;48.31;100847.16;5020273;28;20056;-71
2023/04/26 10:27:44;;;;;;;6.35;1.92;;;;;;;9.22;47.69;100838.56;5007433;28;20505;-70
2023/04/26 10:30:21;;;;;;;9.93;2.03;;;;;;;8.98;47.89;100840.66;5035437;28;20066;-70
2023/04/26 10:32:55;;;;;;;6.80;2.05;;;;;;;8.77;47.92;100854.81;5002005;28;20049;-70
2023/04/26 10:35:23;;;;;;;10.23;2.30;;;;;;;8.56;49.16;100846.19;5019109;28;20069;-70
2023/04/26 10:38:00;;;;;;;6.35;1.95;;;;;;;8.41;49.75;100850.34;5035547;28;20063;-70
2023/04/26 10:40:31;;;;;;;4.88;1.80;;;;;;;8.30;50.75;100849.97;5038152;28;20045;-70
2023/04/26 10:43:07;;;;;;;5.53;1.90;;;;;;;8.12;51.28;100856.91;5002969;28;20578;-70
2023/04/26 10:45:35;;;;;;;9.88;2.40;;;;;;;7.98;52.44;100849.66;5033544;28;20045;-70
2023/04/26 10:48:20;;;;;;;9.38;2.17;;;;;;;8.15;52.71;100856.78;5001503;28;20063;-69
2023/04/26 10:51:00;;;;;;;7.05;2.45;;;;;;;8.12;52.85;100863.00;5015903;28;20124;-71
2023/04/26 10:53:34;;;;;;;9.55;2.50;;;;;;;8.28;53.09;100854.44;5027687;28;20112;-69
2023/04/26 10:56:01;;;;;;;5.57;2.00;;;;;;;8.48;52.79;100853.56;5032314;28;20051;-71
2023/04/26 10:58:30;;;;;;;8.23;2.38;;;;;;;8.80;52.36;100855.50;5016080;28;20049;-71
2023/04/26 11:01:13;;;;;;;6.40;2.13;;;;;;;9.44;50.96;100846.22;5020048;28;20229;-70
2023/04/26 11:03:40;;;;;;;20.38;2.55;;;;;;;9.58;50.46;100850.78;5037755;28;20057;-70
2023/04/26 11:06:14;;;;;;;8.25;2.17;;;;;;;9.70;49.69;100844.06;5019343;28;20076;-70
2023/04/26 11:08:42;;;;;;;19.35;2.83;;;;;;;9.46;49.29;100852.28;5035947;28;20049;-71
2023/04/26 11:11:10;;;;;;;11.00;3.03;;;;;;;9.30;48.67;100849.56;5001582;28;22165;-70
2023/04/26 11:13:42;;;;;;;9.23;2.55;;;;;;;9.15;48.64;100847.72;5015955;28;20059;-71
2023/04/26 11:16:11;;;;;;;7.50;2.03;;;;;;;9.15;48.05;100854.75;4999447;28;20042;-70
2023/04/26 11:18:41;;;;;;;10.73;2.70;;;;;;;8.97;48.76;100859.13;5016893;28;20037;-70
2023/04/26 11:21:09;;;;;;;10.57;2.50;;;;;;;8.86;47.44;100864.88;5024692;28;20045;-70
2023/04/26 11:23:36;;;;;;;12.23;2.45;;;;;;;9.00;47.76;100846.66;5030654;28;20055;-69
2023/04/26 11:26:07;;;;;;;9.45;2.47;;;;;;;9.22;47.24;100849.09;5023591;28;20115;-70
2023/04/26 11:28:36;;;;;;;13.93;2.28;;;;;;;9.76;45.53;100849.84;5023262;28;20033;-72
2023/04/26 11:31:05;;;;;;;7.93;2.25;;;;;;;9.67;44.84;100863.47;5033420;28;20178;-71
2023/04/26 11:33:33;;;;;;;10.48;2.28;;;;;;;10.17;44.82;100862.59;5017418;28;20135;-71
2023/04/26 11:36:01;;;;;;;9.95;2.45;;;;;;;10.21;44.03;100852.75;5016693;28;20046;-70
2023/04/26 11:38:30;;;;;;;12.80;2.53;;;;;;;10.41;42.99;100857.84;5020444;28;20071;-71
2023/04/26 11:40:58;;;;;;;8.18;2.00;;;;;;;10.28;44.01;100859.44;5004212;28;20053;-71